Whitfield, New York
Current Conditions -  °F | °C
As of 4:54 PM on Monday 20 Oct 2014 (Local Time) from KMGJ Reporting Station
Clear Clear  
Wind Chill: 57°   Ceiling: Unl
Heat Index: 57°   Visibility: 10mi
Dew Point: 35°   Wind: 13mph
Humidity: 44%   Direction: 230°SW
Pressure: 29.95"   Gusts: NA
Location:  41.8083°N, 74.2318°W
Report Text: KMGJ 202054Z AUTO 23011KT 10SM CLR 14/02 A2995 RMK AO2 SLP144 T01390017 56010 TSNO
Loading
Personal Weather Stations






























Interactive Weather Map
Tropical Storm Tracking
New forecast layout! Learn more

10-Day Weather Forecast

Advertisements
Track Severe Weather on mobile